createdAt,value
2017-12-31T00:00:34.594Z,11.59
2017-12-31T00:01:34.591Z,11.58
2017-12-31T00:02:34.590Z,11.55
2017-12-31T00:03:34.587Z,11.41
2017-12-31T00:04:34.585Z,11.44
2017-12-31T00:05:34.584Z,11.40
2017-12-31T00:06:34.581Z,11.44
2017-12-31T00:07:34.579Z,11.55
2017-12-31T00:08:34.577Z,11.53
2017-12-31T00:09:34.575Z,11.41
2017-12-31T00:10:34.572Z,11.44
2017-12-31T00:11:34.571Z,11.43
2017-12-31T00:12:34.570Z,11.37
2017-12-31T00:13:34.566Z,11.38
2017-12-31T00:14:34.566Z,11.40
2017-12-31T00:15:34.563Z,11.44
2017-12-31T00:16:34.562Z,11.58
2017-12-31T00:17:34.560Z,11.55
2017-12-31T00:18:34.557Z,11.56
2017-12-31T00:19:34.557Z,11.59
2017-12-31T00:20:34.554Z,11.59
2017-12-31T00:21:34.552Z,11.58
2017-12-31T00:22:34.551Z,11.59
2017-12-31T00:23:34.549Z,11.55
2017-12-31T00:24:34.548Z,11.53
2017-12-31T00:25:34.544Z,11.53
2017-12-31T00:26:34.542Z,11.52
2017-12-31T00:27:34.542Z,11.59
2017-12-31T00:28:34.541Z,11.43
2017-12-31T00:29:34.536Z,11.44
2017-12-31T00:30:34.535Z,11.34
2017-12-31T00:31:34.536Z,11.38
2017-12-31T00:32:34.534Z,11.35
2017-12-31T00:33:34.530Z,11.35
2017-12-31T00:34:34.530Z,11.37
2017-12-31T00:35:34.529Z,11.18
2017-12-31T00:36:34.527Z,11.23
2017-12-31T00:37:34.525Z,11.22
2017-12-31T00:38:34.522Z,11.12
2017-12-31T00:39:34.522Z,11.04
2017-12-31T00:40:34.520Z,10.87
2017-12-31T00:41:34.518Z,10.83
2017-12-31T00:42:34.517Z,10.82
2017-12-31T00:43:34.516Z,10.92
2017-12-31T00:44:34.514Z,10.83
2017-12-31T00:45:34.512Z,10.76
2017-12-31T00:46:34.510Z,10.80
2017-12-31T00:47:34.509Z,10.71
2017-12-31T00:48:34.507Z,10.71
2017-12-31T00:49:34.505Z,10.79
2017-12-31T00:50:34.504Z,10.79
2017-12-31T00:51:34.503Z,10.77
2017-12-31T00:52:34.502Z,10.79
2017-12-31T00:53:34.498Z,10.86
2017-12-31T00:54:34.497Z,10.86
2017-12-31T00:55:34.496Z,10.86
2017-12-31T00:56:34.495Z,10.90
2017-12-31T00:57:34.491Z,10.84
2017-12-31T00:58:34.491Z,10.95
2017-12-31T00:59:34.489Z,10.82
2017-12-31T01:00:34.489Z,10.84
2017-12-31T01:01:34.486Z,10.90
2017-12-31T01:02:34.485Z,10.95
2017-12-31T01:03:34.483Z,11.07
2017-12-31T01:04:34.480Z,11.07
2017-12-31T01:05:34.479Z,11.10
2017-12-31T01:06:34.477Z,11.18
2017-12-31T01:07:34.476Z,11.33
2017-12-31T01:08:34.476Z,11.43
2017-12-31T01:09:34.473Z,11.55
2017-12-31T01:10:34.470Z,11.60
2017-12-31T01:11:34.470Z,11.53
2017-12-31T01:12:34.468Z,11.60
2017-12-31T01:13:34.467Z,11.55
2017-12-31T01:14:34.469Z,11.51
2017-12-31T01:15:34.464Z,11.48
2017-12-31T01:16:34.463Z,11.45
2017-12-31T01:17:34.459Z,11.43
2017-12-31T01:18:34.458Z,11.37
2017-12-31T01:19:34.456Z,11.38
2017-12-31T01:20:34.455Z,11.34
2017-12-31T01:21:34.452Z,11.35
2017-12-31T01:22:34.451Z,11.27
2017-12-31T01:23:34.450Z,11.22
2017-12-31T01:24:34.450Z,11.23
2017-12-31T01:25:34.445Z,11.27
2017-12-31T01:26:34.444Z,11.37
2017-12-31T01:27:34.443Z,11.37
2017-12-31T01:28:34.443Z,11.41
2017-12-31T01:29:34.439Z,11.40
2017-12-31T01:30:34.437Z,11.44
2017-12-31T01:31:34.437Z,11.44
2017-12-31T01:32:34.435Z,11.56
2017-12-31T01:33:34.432Z,11.56
2017-12-31T01:34:34.431Z,11.44
2017-12-31T01:35:34.430Z,11.53
2017-12-31T01:36:34.428Z,11.63
2017-12-31T01:37:34.425Z,11.65
2017-12-31T01:38:34.423Z,11.77
2017-12-31T01:39:34.423Z,11.77
2017-12-31T01:40:34.420Z,11.70
2017-12-31T01:41:34.431Z,11.63
2017-12-31T01:42:34.416Z,11.71
2017-12-31T01:43:34.414Z,11.65
2017-12-31T01:44:34.412Z,11.70
2017-12-31T01:45:34.410Z,11.60
2017-12-31T01:46:34.409Z,11.70
2017-12-31T01:47:34.407Z,11.83
2017-12-31T01:48:34.406Z,11.80
2017-12-31T01:49:34.403Z,11.67
2017-12-31T01:50:34.402Z,11.63
2017-12-31T01:51:34.400Z,11.55
2017-12-31T01:52:34.397Z,11.55
2017-12-31T01:53:34.397Z,11.56
2017-12-31T01:54:34.394Z,11.55
2017-12-31T01:55:34.393Z,11.53
2017-12-31T01:56:34.391Z,11.53
2017-12-31T01:57:34.389Z,11.55
2017-12-31T01:58:34.391Z,11.56
2017-12-31T01:59:34.388Z,11.55
2017-12-31T02:00:34.386Z,11.44
2017-12-31T02:01:34.382Z,11.44
2017-12-31T02:02:34.379Z,11.51
2017-12-31T02:03:34.379Z,11.44
2017-12-31T02:04:34.376Z,11.43
2017-12-31T02:05:34.373Z,11.52
2017-12-31T02:06:34.372Z,11.44
2017-12-31T02:07:34.371Z,11.53
2017-12-31T02:08:34.369Z,11.41
2017-12-31T02:09:34.366Z,11.53
2017-12-31T02:10:34.368Z,11.48
2017-12-31T02:11:34.364Z,11.44
2017-12-31T02:12:34.362Z,11.55
2017-12-31T02:13:34.361Z,11.59
2017-12-31T02:14:34.357Z,11.55
2017-12-31T02:15:34.357Z,11.53
2017-12-31T02:16:34.355Z,11.53
2017-12-31T02:17:34.352Z,11.53
2017-12-31T02:18:34.352Z,11.51
2017-12-31T02:19:34.350Z,11.55
2017-12-31T02:20:34.346Z,11.56
2017-12-31T02:21:34.346Z,11.59
2017-12-31T02:22:34.344Z,11.60
2017-12-31T02:23:34.342Z,11.52
2017-12-31T02:24:34.341Z,11.55
2017-12-31T02:25:34.338Z,11.55
2017-12-31T02:26:34.338Z,11.56
2017-12-31T02:27:34.335Z,11.52
2017-12-31T02:28:34.334Z,11.48
2017-12-31T02:29:34.332Z,11.44
2017-12-31T02:30:34.330Z,11.56
2017-12-31T02:31:34.329Z,11.76
2017-12-31T02:32:34.328Z,11.68
2017-12-31T02:33:34.326Z,11.71
2017-12-31T02:34:34.323Z,11.74
2017-12-31T02:35:34.324Z,11.71
2017-12-31T02:36:34.320Z,11.71
2017-12-31T02:37:34.318Z,11.70
2017-12-31T02:38:34.317Z,11.63
2017-12-31T02:39:34.314Z,11.60
2017-12-31T02:40:34.313Z,11.63
2017-12-31T02:41:34.311Z,11.55
2017-12-31T02:42:34.309Z,11.60
2017-12-31T02:43:34.307Z,11.55
2017-12-31T02:44:34.305Z,11.59
2017-12-31T02:45:34.303Z,11.55
2017-12-31T02:46:34.301Z,11.53
2017-12-31T02:47:34.300Z,11.52
2017-12-31T02:48:34.298Z,11.51
2017-12-31T02:49:34.295Z,11.51
2017-12-31T02:50:34.294Z,11.44
2017-12-31T02:51:34.292Z,11.49
2017-12-31T02:52:34.292Z,11.59
2017-12-31T02:53:34.288Z,11.59
2017-12-31T02:54:34.286Z,11.73
2017-12-31T02:55:34.291Z,11.67
2017-12-31T02:56:34.284Z,11.58
2017-12-31T02:57:34.286Z,11.58
2017-12-31T02:58:34.278Z,11.65
2017-12-31T02:59:34.277Z,11.73
2017-12-31T03:00:34.276Z,11.73
2017-12-31T03:01:34.274Z,11.78
2017-12-31T03:02:34.271Z,11.70
2017-12-31T03:03:34.270Z,11.71
2017-12-31T03:04:34.267Z,11.68
2017-12-31T03:05:34.265Z,11.74
2017-12-31T03:06:34.263Z,11.70
2017-12-31T03:07:34.264Z,11.62
2017-12-31T03:08:34.260Z,11.77
2017-12-31T03:09:34.259Z,11.95
2017-12-31T03:10:34.257Z,11.83
2017-12-31T03:11:34.255Z,11.83
2017-12-31T03:12:34.254Z,11.70
2017-12-31T03:13:34.251Z,11.56
2017-12-31T03:14:34.248Z,11.55
2017-12-31T03:15:34.247Z,11.59
2017-12-31T03:16:34.246Z,11.53
2017-12-31T03:17:34.244Z,11.51
2017-12-31T03:18:34.242Z,11.55
2017-12-31T03:19:34.241Z,11.40
2017-12-31T03:20:34.239Z,11.38
2017-12-31T03:21:34.235Z,11.41
2017-12-31T03:22:34.234Z,11.30
2017-12-31T03:23:34.238Z,11.35
2017-12-31T03:24:34.231Z,11.30
2017-12-31T03:25:34.229Z,11.31
2017-12-31T03:26:34.227Z,11.31
2017-12-31T03:27:34.226Z,11.43
2017-12-31T03:28:34.225Z,11.44
2017-12-31T03:29:34.221Z,11.40
2017-12-31T03:30:34.220Z,11.41
2017-12-31T03:31:34.217Z,11.34
2017-12-31T03:32:34.217Z,11.33
2017-12-31T03:33:34.216Z,11.37
2017-12-31T03:34:34.212Z,11.37
2017-12-31T03:35:34.211Z,11.33
2017-12-31T03:36:34.209Z,11.25
2017-12-31T03:37:34.207Z,11.27
2017-12-31T03:38:34.204Z,11.23
2017-12-31T03:39:34.203Z,11.34
2017-12-31T03:40:34.202Z,11.27
2017-12-31T03:41:34.199Z,11.35
2017-12-31T03:42:34.198Z,11.27
2017-12-31T03:43:34.196Z,11.44
2017-12-31T03:44:34.195Z,11.48
2017-12-31T03:45:34.193Z,11.56
2017-12-31T03:46:34.189Z,11.52
2017-12-31T03:47:34.188Z,11.55
2017-12-31T03:48:34.187Z,11.56
2017-12-31T03:49:34.184Z,11.63
2017-12-31T03:50:34.182Z,11.58
2017-12-31T03:51:34.180Z,11.62
2017-12-31T03:52:34.179Z,11.63
2017-12-31T03:53:34.176Z,11.56
2017-12-31T03:54:34.176Z,11.62
2017-12-31T03:55:34.174Z,11.51
2017-12-31T03:56:34.173Z,11.53
2017-12-31T03:57:34.170Z,11.65
2017-12-31T03:58:34.168Z,11.59
2017-12-31T03:59:34.166Z,11.63
2017-12-31T04:00:34.167Z,11.67
2017-12-31T04:01:34.165Z,11.67
2017-12-31T04:02:34.159Z,11.71
2017-12-31T04:03:34.159Z,11.67
2017-12-31T04:04:34.159Z,11.68
2017-12-31T04:05:34.155Z,11.76
2017-12-31T04:06:34.154Z,11.76
2017-12-31T04:07:34.153Z,11.74
2017-12-31T04:08:34.152Z,11.83
2017-12-31T04:09:34.148Z,11.78
2017-12-31T04:10:34.146Z,11.88
2017-12-31T04:11:34.145Z,11.80
2017-12-31T04:12:34.144Z,11.77
2017-12-31T04:13:34.141Z,11.70
2017-12-31T04:14:34.140Z,11.63
2017-12-31T04:15:34.140Z,11.60
2017-12-31T04:16:34.137Z,11.45
2017-12-31T04:17:34.136Z,11.43
2017-12-31T04:18:34.133Z,11.30
2017-12-31T04:19:34.132Z,11.40
2017-12-31T04:20:34.130Z,11.26
2017-12-31T04:21:34.129Z,11.33
2017-12-31T04:22:34.133Z,11.26
2017-12-31T04:23:34.125Z,11.31
2017-12-31T04:24:34.124Z,11.30
2017-12-31T04:25:34.121Z,11.18
2017-12-31T04:26:34.121Z,11.16
2017-12-31T04:27:34.119Z,11.02
2017-12-31T04:28:34.117Z,10.94
2017-12-31T04:29:34.121Z,10.84
2017-12-31T04:30:34.114Z,10.75
2017-12-31T04:31:34.112Z,10.75
2017-12-31T04:32:34.110Z,10.71
2017-12-31T04:33:34.110Z,10.72
2017-12-31T04:34:34.107Z,10.69
2017-12-31T04:35:34.106Z,10.75
2017-12-31T04:36:34.107Z,10.72
2017-12-31T04:37:34.104Z,10.65
2017-12-31T04:38:34.101Z,10.65
2017-12-31T04:39:34.100Z,10.58
2017-12-31T04:40:34.098Z,10.62
2017-12-31T04:41:34.097Z,10.57
2017-12-31T04:42:34.094Z,10.53
2017-12-31T04:43:34.094Z,10.61
2017-12-31T04:44:34.092Z,10.61
2017-12-31T04:45:34.088Z,10.55
2017-12-31T04:46:34.088Z,10.57
2017-12-31T04:47:34.089Z,10.34
2017-12-31T04:48:34.086Z,10.42
2017-12-31T04:49:34.082Z,10.33
2017-12-31T04:50:34.081Z,10.20
2017-12-31T04:51:34.079Z,10.17
2017-12-31T04:52:34.079Z,10.15
2017-12-31T04:53:34.075Z,10.15
2017-12-31T04:54:34.074Z,10.24
2017-12-31T04:55:34.074Z,10.27
2017-12-31T04:56:34.071Z,10.20
2017-12-31T04:57:34.069Z,10.17
2017-12-31T04:58:34.066Z,10.20
2017-12-31T04:59:34.072Z,10.21
2017-12-31T05:00:34.064Z,10.24
2017-12-31T05:01:34.061Z,10.28
2017-12-31T05:02:34.059Z,10.25
2017-12-31T05:03:34.058Z,10.43
2017-12-31T05:04:34.056Z,10.68
2017-12-31T05:05:34.055Z,10.68
2017-12-31T05:06:34.051Z,10.77
2017-12-31T05:07:34.100Z,10.76
2017-12-31T05:08:34.049Z,10.83
2017-12-31T05:09:34.046Z,10.84
2017-12-31T05:10:34.043Z,10.84
2017-12-31T05:11:34.043Z,10.83
2017-12-31T05:12:34.040Z,10.83
2017-12-31T05:13:34.037Z,10.89
2017-12-31T05:14:34.036Z,10.83
2017-12-31T05:15:34.034Z,10.87
2017-12-31T05:16:34.033Z,10.77
2017-12-31T05:17:34.030Z,10.75
2017-12-31T05:18:34.028Z,10.65
2017-12-31T05:19:34.028Z,10.71
2017-12-31T05:20:34.025Z,10.48
2017-12-31T05:21:34.023Z,10.45
2017-12-31T05:22:34.020Z,10.42
2017-12-31T05:23:34.018Z,10.38
2017-12-31T05:24:34.019Z,10.41
2017-12-31T05:25:34.015Z,10.31
2017-12-31T05:26:34.012Z,10.21
2017-12-31T05:27:34.011Z,10.20
2017-12-31T05:28:34.010Z,10.21
2017-12-31T05:29:34.007Z,10.21
2017-12-31T05:30:34.006Z,10.12
2017-12-31T05:31:34.004Z,10.12
2017-12-31T05:32:34.003Z,10.09
2017-12-31T05:33:34.000Z,10.12
2017-12-31T05:34:33.997Z,10.10
2017-12-31T05:35:33.995Z,10.07
2017-12-31T05:36:33.993Z,10.07
2017-12-31T05:37:33.991Z,10.13
2017-12-31T05:38:33.988Z,9.97
2017-12-31T05:39:33.987Z,9.99
2017-12-31T05:40:33.985Z,9.95
2017-12-31T05:41:33.982Z,9.84
2017-12-31T05:42:33.980Z,9.87
2017-12-31T05:43:33.978Z,9.82
2017-12-31T05:44:33.978Z,9.84
2017-12-31T05:45:33.975Z,9.85
2017-12-31T05:46:33.972Z,9.77
2017-12-31T05:47:33.970Z,9.70
2017-12-31T05:48:33.968Z,9.62
2017-12-31T05:49:33.966Z,9.63
2017-12-31T05:50:33.963Z,9.52
2017-12-31T05:51:33.960Z,9.55
2017-12-31T05:52:33.959Z,9.49
2017-12-31T05:53:33.956Z,9.37
2017-12-31T05:54:33.955Z,9.26
2017-12-31T05:55:33.952Z,9.16
2017-12-31T05:56:33.951Z,9.12
2017-12-31T05:57:33.947Z,9.05
2017-12-31T05:58:33.946Z,8.96
2017-12-31T05:59:33.943Z,8.95
2017-12-31T06:00:33.941Z,8.81
2017-12-31T06:01:33.937Z,8.81
2017-12-31T06:02:33.936Z,8.75
2017-12-31T06:03:33.933Z,8.66
2017-12-31T06:04:33.930Z,8.63
2017-12-31T06:05:33.928Z,8.53
2017-12-31T06:06:33.926Z,8.52
2017-12-31T06:07:33.923Z,8.52
2017-12-31T06:08:33.921Z,8.46
2017-12-31T06:09:33.918Z,8.35
2017-12-31T06:10:33.915Z,8.41
2017-12-31T06:11:33.914Z,8.42
2017-12-31T06:12:33.916Z,8.38
2017-12-31T06:13:33.907Z,8.41
2017-12-31T06:14:33.905Z,8.41
2017-12-31T06:15:33.904Z,8.31
2017-12-31T06:16:33.900Z,8.16
2017-12-31T06:17:33.897Z,8.16
2017-12-31T06:18:33.894Z,8.08
2017-12-31T06:19:33.891Z,8.08
2017-12-31T06:20:33.890Z,8.08
2017-12-31T06:21:33.887Z,7.90
2017-12-31T06:22:33.883Z,7.88
2017-12-31T06:23:33.880Z,7.85
2017-12-31T06:24:33.878Z,7.83
2017-12-31T06:25:33.874Z,7.78
2017-12-31T06:26:33.872Z,7.81
2017-12-31T06:27:33.869Z,7.80
2017-12-31T06:28:33.865Z,7.78
2017-12-31T06:29:33.862Z,7.77
2017-12-31T06:30:33.859Z,7.81
2017-12-31T06:31:33.856Z,7.66
2017-12-31T06:32:33.853Z,7.72
2017-12-31T06:33:33.851Z,7.66
2017-12-31T06:34:33.853Z,7.75
2017-12-31T06:35:33.856Z,7.64
2017-12-31T06:36:33.841Z,7.69
2017-12-31T06:37:33.838Z,7.58
2017-12-31T06:38:33.834Z,7.56
2017-12-31T06:39:33.831Z,7.48
2017-12-31T06:40:33.828Z,7.48
2017-12-31T06:41:33.826Z,7.47
2017-12-31T06:42:33.823Z,7.33
2017-12-31T06:43:33.818Z,7.19
2017-12-31T06:44:33.817Z,7.15
2017-12-31T06:45:33.811Z,7.21
2017-12-31T06:46:33.808Z,7.13
2017-12-31T06:47:33.806Z,7.22
2017-12-31T06:48:33.803Z,7.19
2017-12-31T06:49:33.798Z,7.21
2017-12-31T06:50:33.795Z,7.11
2017-12-31T06:51:33.792Z,7.08
2017-12-31T06:52:33.789Z,7.11
2017-12-31T06:53:33.791Z,7.04
2017-12-31T06:54:33.790Z,7.13
2017-12-31T06:55:33.778Z,7.03
2017-12-31T06:56:33.775Z,7.11
2017-12-31T06:57:33.774Z,7.08
2017-12-31T06:58:33.768Z,7.11
2017-12-31T06:59:33.764Z,7.01
2017-12-31T07:00:33.760Z,7.07
2017-12-31T07:01:33.757Z,7.07
2017-12-31T07:02:33.753Z,7.14
2017-12-31T07:03:33.751Z,7.25
2017-12-31T07:04:33.747Z,7.26
2017-12-31T07:05:33.742Z,7.33
2017-12-31T07:06:33.739Z,7.43
2017-12-31T07:07:33.737Z,7.48
2017-12-31T07:08:33.733Z,7.53
2017-12-31T07:09:33.730Z,7.41
2017-12-31T07:10:33.725Z,7.43
2017-12-31T07:11:33.721Z,7.44
2017-12-31T07:12:33.718Z,7.53
2017-12-31T07:13:33.715Z,7.46
2017-12-31T07:14:33.711Z,7.47
2017-12-31T07:15:33.708Z,7.46
2017-12-31T07:16:33.704Z,7.39
2017-12-31T07:17:33.701Z,7.41
2017-12-31T07:18:33.696Z,7.43
2017-12-31T07:19:33.693Z,7.36
2017-12-31T07:20:33.691Z,7.33
2017-12-31T07:21:33.685Z,7.32
2017-12-31T07:22:33.682Z,7.28
2017-12-31T07:23:33.678Z,7.25
2017-12-31T07:24:33.675Z,7.18
2017-12-31T07:25:33.672Z,7.21
2017-12-31T07:26:33.668Z,7.15
2017-12-31T07:27:33.664Z,7.19
2017-12-31T07:28:33.661Z,7.13
2017-12-31T07:29:33.656Z,7.04
2017-12-31T07:30:33.653Z,6.85
2017-12-31T07:31:33.650Z,6.78
2017-12-31T07:32:33.647Z,6.71
2017-12-31T07:33:33.641Z,6.71
2017-12-31T07:34:33.639Z,6.60
2017-12-31T07:35:33.636Z,6.62
2017-12-31T07:36:33.631Z,6.60
2017-12-31T07:37:33.627Z,6.52
2017-12-31T07:38:33.622Z,6.57
2017-12-31T07:39:33.619Z,6.53
2017-12-31T07:40:33.617Z,6.44
2017-12-31T07:41:33.611Z,6.41
2017-12-31T07:42:33.607Z,6.46
2017-12-31T07:43:33.604Z,6.50
2017-12-31T07:44:33.600Z,6.43
2017-12-31T07:45:33.595Z,6.43
2017-12-31T07:46:33.594Z,6.43
2017-12-31T07:47:33.587Z,6.53
2017-12-31T07:48:33.585Z,6.57
2017-12-31T07:49:33.580Z,6.49
2017-12-31T07:50:33.575Z,6.62
2017-12-31T07:51:33.572Z,6.72
2017-12-31T07:52:33.568Z,7.18
2017-12-31T07:53:33.563Z,7.72
2017-12-31T07:54:33.562Z,8.28
2017-12-31T07:55:33.556Z,8.45
2017-12-31T07:56:33.554Z,8.82
2017-12-31T07:57:33.549Z,8.90
2017-12-31T07:58:33.548Z,9.18
2017-12-31T07:59:33.545Z,9.51
2017-12-31T08:00:33.546Z,9.80
2017-12-31T08:01:33.541Z,10.09
2017-12-31T08:02:33.539Z,10.12
2017-12-31T08:03:33.538Z,10.17
2017-12-31T08:04:33.538Z,10.10
2017-12-31T08:05:33.535Z,9.84
2017-12-31T08:06:33.533Z,9.49
2017-12-31T08:07:33.532Z,9.22
2017-12-31T08:08:33.531Z,9.13
2017-12-31T08:09:33.529Z,9.13
2017-12-31T08:10:33.528Z,9.09
2017-12-31T08:11:33.527Z,8.78
2017-12-31T08:12:33.525Z,8.81
2017-12-31T08:13:33.523Z,8.74
2017-12-31T08:14:33.524Z,8.69
2017-12-31T08:15:33.521Z,8.54
2017-12-31T08:16:33.520Z,8.35
2017-12-31T08:17:33.518Z,8.23
2017-12-31T08:18:33.516Z,8.23
2017-12-31T08:19:33.515Z,8.09
2017-12-31T08:20:33.513Z,8.05
2017-12-31T08:21:33.557Z,8.05
2017-12-31T08:22:33.515Z,8.18
2017-12-31T08:23:33.509Z,8.54
2017-12-31T08:24:33.505Z,8.81
2017-12-31T08:25:33.503Z,8.97
2017-12-31T08:26:33.501Z,9.13
2017-12-31T08:27:33.500Z,9.18
2017-12-31T08:28:33.499Z,9.31
2017-12-31T08:29:33.497Z,9.30
2017-12-31T08:30:33.497Z,9.36
2017-12-31T08:31:33.495Z,9.33
2017-12-31T08:32:33.494Z,9.19
2017-12-31T08:33:33.492Z,9.00
2017-12-31T08:34:33.492Z,9.08
2017-12-31T08:35:33.489Z,8.78
2017-12-31T08:36:33.488Z,8.86
2017-12-31T08:37:33.488Z,8.78
2017-12-31T08:38:33.485Z,8.72
2017-12-31T08:39:33.484Z,8.71
2017-12-31T08:40:33.482Z,8.72
2017-12-31T08:41:33.479Z,8.82
2017-12-31T08:42:33.478Z,9.09
2017-12-31T08:43:33.477Z,9.36
2017-12-31T08:44:33.475Z,9.45
2017-12-31T08:45:33.473Z,9.66
2017-12-31T08:46:33.471Z,9.92
2017-12-31T08:47:33.501Z,10.03
2017-12-31T08:48:33.477Z,10.21
2017-12-31T08:49:33.467Z,10.15
2017-12-31T08:50:33.467Z,9.82
2017-12-31T08:51:33.466Z,9.54
2017-12-31T08:52:33.466Z,9.45
2017-12-31T08:53:33.465Z,9.47
2017-12-31T08:54:33.465Z,9.49
2017-12-31T08:55:33.470Z,9.52
2017-12-31T08:56:33.464Z,9.63
2017-12-31T08:57:33.462Z,9.74
2017-12-31T08:58:33.462Z,9.70
2017-12-31T08:59:33.461Z,9.66
2017-12-31T09:00:33.461Z,9.56
2017-12-31T09:01:33.460Z,9.54
2017-12-31T09:02:33.460Z,9.70
2017-12-31T09:03:33.460Z,10.00
2017-12-31T09:04:33.461Z,9.97
2017-12-31T09:05:33.458Z,10.09
2017-12-31T09:06:33.458Z,10.03
2017-12-31T09:07:33.458Z,9.87
2017-12-31T09:08:33.458Z,9.36
2017-12-31T09:09:33.457Z,9.09
2017-12-31T09:10:33.457Z,8.92
2017-12-31T09:11:33.456Z,8.86
2017-12-31T09:12:33.456Z,8.78
2017-12-31T09:13:33.453Z,8.69
2017-12-31T09:14:33.502Z,8.66
2017-12-31T09:15:33.451Z,8.69
2017-12-31T09:16:33.456Z,8.97
2017-12-31T09:17:33.448Z,9.34
2017-12-31T09:18:33.447Z,9.82
2017-12-31T09:19:33.447Z,10.24
2017-12-31T09:20:33.446Z,10.64
2017-12-31T09:21:33.447Z,10.68
2017-12-31T09:22:33.443Z,10.62
2017-12-31T09:23:33.442Z,10.58
2017-12-31T09:24:33.443Z,10.53
2017-12-31T09:25:33.440Z,10.33
2017-12-31T09:26:33.441Z,10.27
2017-12-31T09:27:33.439Z,10.09
2017-12-31T09:28:33.440Z,10.12
2017-12-31T09:29:33.444Z,10.49
2017-12-31T09:30:33.436Z,10.69
2017-12-31T09:31:33.437Z,10.86
2017-12-31T09:32:33.437Z,10.87
2017-12-31T09:33:33.436Z,10.97
2017-12-31T09:34:33.436Z,10.71
2017-12-31T09:35:33.437Z,10.65
2017-12-31T09:36:33.437Z,10.55
2017-12-31T09:37:33.436Z,10.59
2017-12-31T09:38:33.439Z,10.87
2017-12-31T09:39:33.450Z,11.63
2017-12-31T09:40:33.440Z,12.44
2017-12-31T09:41:33.439Z,13.26
2017-12-31T09:42:33.441Z,13.79
2017-12-31T09:43:33.442Z,14.33
2017-12-31T09:44:33.446Z,14.56
2017-12-31T09:45:33.449Z,14.68
2017-12-31T09:46:33.450Z,14.41
2017-12-31T09:47:33.454Z,13.97
2017-12-31T09:48:33.458Z,13.73
2017-12-31T09:49:33.460Z,13.75
2017-12-31T09:50:33.465Z,13.68
2017-12-31T09:51:33.470Z,13.55
2017-12-31T09:52:33.473Z,13.31
2017-12-31T09:53:33.477Z,12.84
2017-12-31T09:54:33.486Z,12.75
2017-12-31T09:55:33.494Z,12.65
2017-12-31T09:56:33.489Z,12.54
2017-12-31T09:57:33.493Z,12.66
2017-12-31T09:58:33.497Z,13.08
2017-12-31T09:59:33.500Z,13.27
2017-12-31T10:00:33.504Z,13.36
2017-12-31T10:01:33.507Z,13.43
2017-12-31T10:02:33.511Z,13.43
2017-12-31T10:03:33.516Z,13.68
2017-12-31T10:04:33.519Z,13.60
2017-12-31T10:05:33.523Z,13.46
2017-12-31T10:06:33.526Z,13.17
2017-12-31T10:07:33.531Z,13.11
2017-12-31T10:08:33.535Z,13.39
2017-12-31T10:09:33.540Z,13.45
2017-12-31T10:10:33.542Z,13.43
2017-12-31T10:11:33.570Z,13.12
2017-12-31T10:12:33.551Z,13.37
2017-12-31T10:13:33.560Z,13.64
2017-12-31T10:14:33.560Z,14.03
2017-12-31T10:15:33.564Z,14.37
2017-12-31T10:16:33.568Z,14.53
2017-12-31T10:17:33.574Z,14.56
2017-12-31T10:18:33.578Z,14.55
2017-12-31T10:19:33.587Z,14.82
2017-12-31T10:20:33.588Z,14.87
2017-12-31T10:21:33.593Z,15.22
2017-12-31T10:22:33.600Z,15.35
2017-12-31T10:23:33.609Z,15.48
2017-12-31T10:24:33.613Z,15.66
2017-12-31T10:25:33.620Z,16.00
2017-12-31T10:26:33.626Z,16.25
2017-12-31T10:27:33.633Z,16.21
2017-12-31T10:28:33.640Z,16.40
2017-12-31T10:29:33.647Z,16.54
2017-12-31T10:30:33.656Z,16.36
2017-12-31T10:31:33.693Z,16.13
2017-12-31T10:32:33.669Z,16.05
2017-12-31T10:33:33.677Z,15.99
2017-12-31T10:34:33.684Z,16.03
2017-12-31T10:35:33.692Z,16.00
2017-12-31T10:36:33.698Z,16.17
2017-12-31T10:37:33.706Z,16.40
2017-12-31T10:38:33.713Z,16.55
2017-12-31T10:39:33.721Z,16.72
2017-12-31T10:40:33.729Z,16.05
2017-12-31T10:41:33.735Z,15.73
2017-12-31T10:42:33.743Z,15.59
2017-12-31T10:43:33.751Z,15.55
2017-12-31T10:44:33.759Z,15.83
2017-12-31T10:45:33.765Z,16.05
2017-12-31T10:46:33.772Z,16.46
2017-12-31T10:47:33.780Z,16.64
2017-12-31T10:48:33.788Z,16.99
2017-12-31T10:49:33.795Z,17.05
2017-12-31T10:50:33.802Z,17.10
2017-12-31T10:51:33.810Z,17.23
2017-12-31T10:52:33.819Z,17.22
2017-12-31T10:53:33.825Z,17.69
2017-12-31T10:54:33.835Z,17.72
2017-12-31T10:55:33.842Z,17.23
2017-12-31T10:56:33.850Z,17.23
2017-12-31T10:57:33.865Z,16.82
2017-12-31T10:58:33.865Z,16.64
2017-12-31T10:59:33.874Z,16.61
2017-12-31T11:00:33.882Z,16.24
2017-12-31T11:01:33.890Z,15.72
2017-12-31T11:02:33.899Z,15.75
2017-12-31T11:03:33.906Z,15.78
2017-12-31T11:04:33.915Z,15.59
2017-12-31T11:05:33.920Z,15.37
2017-12-31T11:06:33.930Z,15.23
2017-12-31T11:07:33.937Z,15.22
2017-12-31T11:08:33.946Z,15.22
2017-12-31T11:09:33.951Z,15.27
2017-12-31T11:10:33.960Z,15.39
2017-12-31T11:11:33.967Z,15.41
2017-12-31T11:12:33.975Z,15.45
2017-12-31T11:13:33.982Z,15.55
2017-12-31T11:14:33.989Z,15.52
2017-12-31T11:15:33.997Z,15.70
2017-12-31T11:16:34.005Z,15.78
2017-12-31T11:17:34.011Z,15.57
2017-12-31T11:18:34.019Z,15.41
2017-12-31T11:19:34.031Z,15.30
2017-12-31T11:20:34.032Z,15.15
2017-12-31T11:21:34.039Z,15.47
2017-12-31T11:22:34.045Z,15.91
2017-12-31T11:23:34.052Z,15.90
2017-12-31T11:24:34.062Z,15.94
2017-12-31T11:25:34.064Z,15.72
2017-12-31T11:26:34.071Z,15.76
2017-12-31T11:27:34.081Z,15.60
2017-12-31T11:28:34.084Z,15.62
2017-12-31T11:29:34.091Z,15.84
2017-12-31T11:30:34.100Z,16.24
2017-12-31T11:31:34.104Z,16.59
2017-12-31T11:32:34.111Z,16.84
2017-12-31T11:33:34.116Z,17.01
2017-12-31T11:34:34.122Z,17.13
2017-12-31T11:35:34.129Z,16.80
2017-12-31T11:36:34.136Z,16.66
2017-12-31T11:37:34.143Z,16.49
2017-12-31T11:38:34.151Z,16.13
2017-12-31T11:39:34.155Z,16.08
2017-12-31T11:40:34.162Z,16.26
2017-12-31T11:41:34.167Z,16.57
2017-12-31T11:42:34.174Z,16.74
2017-12-31T11:43:34.180Z,16.59
2017-12-31T11:44:34.187Z,16.68
2017-12-31T11:45:34.194Z,16.68
2017-12-31T11:46:34.199Z,16.54
2017-12-31T11:47:34.205Z,16.57
2017-12-31T11:48:34.211Z,16.79
2017-12-31T11:49:34.217Z,16.82
2017-12-31T11:50:34.223Z,16.95
2017-12-31T11:51:34.230Z,17.09
2017-12-31T11:52:34.236Z,17.27
2017-12-31T11:53:34.241Z,17.05
2017-12-31T11:54:34.247Z,17.04
2017-12-31T11:55:34.256Z,16.84
2017-12-31T11:56:34.260Z,16.76
2017-12-31T11:57:34.265Z,16.65
2017-12-31T11:58:34.273Z,16.55
2017-12-31T11:59:34.280Z,16.17
2017-12-31T12:00:34.286Z,16.06
2017-12-31T12:01:34.291Z,15.94
2017-12-31T12:02:34.297Z,15.94
2017-12-31T12:03:34.317Z,15.76
2017-12-31T12:04:34.359Z,15.51
2017-12-31T12:05:34.315Z,15.55
2017-12-31T12:06:34.321Z,15.69
2017-12-31T12:07:34.327Z,15.85
2017-12-31T12:08:34.333Z,15.90
2017-12-31T12:09:34.338Z,15.90
2017-12-31T12:10:34.346Z,15.98
2017-12-31T12:11:34.351Z,15.94
2017-12-31T12:12:34.357Z,15.67
2017-12-31T12:13:34.372Z,15.26
2017-12-31T12:14:34.368Z,15.18
2017-12-31T12:15:34.373Z,15.05
2017-12-31T12:16:34.381Z,15.04
2017-12-31T12:17:34.384Z,15.17
2017-12-31T12:18:34.389Z,15.15
2017-12-31T12:19:34.396Z,14.93
2017-12-31T12:20:34.401Z,14.97
2017-12-31T12:21:34.405Z,15.08
2017-12-31T12:22:34.412Z,15.25
2017-12-31T12:23:34.418Z,15.45
2017-12-31T12:24:34.423Z,15.55
2017-12-31T12:25:34.428Z,15.43
2017-12-31T12:26:34.435Z,15.45
2017-12-31T12:27:34.440Z,15.54
2017-12-31T12:28:34.447Z,15.51
2017-12-31T12:29:34.453Z,15.62
2017-12-31T12:30:34.459Z,15.70
2017-12-31T12:31:34.464Z,15.75
2017-12-31T12:32:34.470Z,15.78
2017-12-31T12:33:34.476Z,15.80
2017-12-31T12:34:34.481Z,15.92
2017-12-31T12:35:34.487Z,15.92
2017-12-31T12:36:34.493Z,15.80
2017-12-31T12:37:34.498Z,15.76
2017-12-31T12:38:34.504Z,15.84
2017-12-31T12:39:34.511Z,15.72
2017-12-31T12:40:34.518Z,15.81
2017-12-31T12:41:34.522Z,15.96
2017-12-31T12:42:34.530Z,16.13
2017-12-31T12:43:34.535Z,15.85
2017-12-31T12:44:34.541Z,15.84
2017-12-31T12:45:34.548Z,15.63
2017-12-31T12:46:34.553Z,15.45
2017-12-31T12:47:34.560Z,15.52
2017-12-31T12:48:34.567Z,15.63
2017-12-31T12:49:34.572Z,15.76
2017-12-31T12:50:34.579Z,15.70
2017-12-31T12:51:34.584Z,15.70
2017-12-31T12:52:34.592Z,15.67
2017-12-31T12:53:34.626Z,15.47
2017-12-31T12:54:34.603Z,15.63
2017-12-31T12:55:34.611Z,15.75
2017-12-31T12:56:34.615Z,15.78
2017-12-31T12:57:34.619Z,15.44
2017-12-31T12:58:34.626Z,15.30
2017-12-31T12:59:34.632Z,15.12